Time;durP1;ratioP1;P1;durP2;ratioP2;P2;SDS_P1;SDS_P2;PMS_P1;PMS_P2;Temp;Humidity;BMP_temperature;BMP_pressure;BME280_temperature;BME280_humidity;BME280_pressure;Samples;Min_cycle;Max_cycle;Signal;HPM_P1;HPM_P2
2021/09/02 00:01:41;;;;;;;13.67;6.90;;;17.70;99.90;;;;;;4996423;28;20414;-51
2021/09/02 00:04:08;;;;;;;12.67;6.87;;;17.70;99.90;;;;;;4992639;28;20232;-50
2021/09/02 00:06:35;;;;;;;10.40;6.80;;;17.80;99.90;;;;;;4995006;28;20286;-51
2021/09/02 00:09:02;;;;;;;11.47;6.67;;;17.80;99.90;;;;;;4998749;28;20351;-51
2021/09/02 00:11:29;;;;;;;11.50;6.70;;;17.80;99.90;;;;;;4997946;28;20291;-51
2021/09/02 00:13:55;;;;;;;14.30;7.37;;;17.70;99.90;;;;;;4997506;28;20244;-50
2021/09/02 00:16:22;;;;;;;14.63;7.27;;;17.80;99.90;;;;;;4997994;28;20239;-51
2021/09/02 00:18:49;;;;;;;15.27;7.60;;;17.80;99.90;;;;;;4996976;28;20598;-51
2021/09/02 00:21:15;;;;;;;10.67;6.27;;;17.80;99.90;;;;;;4995714;28;20293;-51
2021/09/02 00:23:42;;;;;;;11.73;7.03;;;17.80;99.90;;;;;;4997013;28;20236;-51
2021/09/02 00:26:09;;;;;;;12.43;8.20;;;17.80;99.90;;;;;;5011404;28;20289;-51
2021/09/02 00:28:38;;;;;;;12.30;7.17;;;17.70;99.90;;;;;;4997747;28;20209;-51
2021/09/02 00:31:05;;;;;;;13.27;8.20;;;17.60;99.90;;;;;;4995744;28;20288;-51
2021/09/02 00:33:32;;;;;;;12.93;8.10;;;17.50;99.90;;;;;;4997586;28;20298;-51
2021/09/02 00:35:59;;;;;;;13.37;7.77;;;17.50;99.90;;;;;;4998035;28;20212;-51
2021/09/02 00:38:26;;;;;;;12.00;7.73;;;17.50;99.90;;;;;;4999785;28;20236;-51
2021/09/02 00:40:52;;;;;;;18.20;8.67;;;17.60;99.90;;;;;;4993776;28;20325;-51
2021/09/02 00:43:20;;;;;;;16.73;8.10;;;17.60;99.90;;;;;;4994531;28;20291;-51
2021/09/02 00:45:47;;;;;;;15.30;8.43;;;17.40;99.90;;;;;;4998411;28;20642;-50
2021/09/02 00:48:14;;;;;;;14.00;8.00;;;17.30;99.90;;;;;;4997641;28;20740;-51
2021/09/02 00:50:41;;;;;;;13.40;7.37;;;17.30;99.90;;;;;;4996742;28;20352;-51
2021/09/02 00:53:08;;;;;;;13.97;8.53;;;17.40;99.90;;;;;;4994197;28;20293;-51
2021/09/02 00:55:35;;;;;;;14.90;8.37;;;17.40;99.90;;;;;;4993584;28;20314;-51
2021/09/02 00:58:02;;;;;;;14.87;8.87;;;17.40;99.90;;;;;;4994390;28;20945;-51
2021/09/02 01:00:29;;;;;;;13.73;9.00;;;17.10;99.90;;;;;;4997945;28;20301;-51
2021/09/02 01:02:56;;;;;;;11.57;8.13;;;17.20;99.90;;;;;;4992903;28;20588;-50
2021/09/02 01:05:23;;;;;;;16.83;8.20;;;17.20;99.90;;;;;;4997744;28;20300;-51
2021/09/02 01:07:50;;;;;;;16.43;8.77;;;17.10;99.90;;;;;;4996247;28;20740;-51
2021/09/02 01:10:17;;;;;;;12.50;7.50;;;17.00;99.90;;;;;;4992393;28;20202;-50
2021/09/02 01:12:47;;;;;;;17.20;9.10;;;17.00;99.90;;;;;;4994061;28;20200;-50
2021/09/02 01:15:23;;;;;;;14.63;8.17;;;17.00;99.90;;;;;;4996625;28;20668;-50
2021/09/02 01:17:56;;;;;;;15.33;8.70;;;17.00;99.90;;;;;;4996728;28;20631;-51
2021/09/02 01:20:30;;;;;;;15.13;9.37;;;16.90;99.90;;;;;;5008917;28;20249;-51
2021/09/02 01:23:00;;;;;;;17.33;9.83;;;16.90;99.90;;;;;;5011315;28;20820;-50
2021/09/02 01:25:29;;;;;;;13.13;9.23;;;16.90;99.90;;;;;;4994170;28;20217;-51
2021/09/02 01:28:00;;;;;;;16.93;9.57;;;16.90;99.90;;;;;;4996799;28;20213;-51
2021/09/02 01:30:27;;;;;;;18.67;9.83;;;16.80;99.90;;;;;;4999096;28;20725;-50
2021/09/02 01:32:56;;;;;;;19.73;9.70;;;17.00;99.90;;;;;;4993586;28;20300;-50
2021/09/02 01:35:25;;;;;;;15.27;10.10;;;17.10;99.90;;;;;;4995810;28;20509;-51
2021/09/02 01:37:57;;;;;;;15.73;9.00;;;17.00;99.90;;;;;;4999918;28;20746;-50
2021/09/02 01:40:36;;;;;;;14.97;9.43;;;17.00;99.90;;;;;;4999014;28;20396;-50
2021/09/02 01:43:07;;;;;;;17.13;10.07;;;17.10;99.90;;;;;;4999847;28;20215;-50
2021/09/02 01:45:36;;;;;;;16.80;9.77;;;17.20;99.90;;;;;;5000613;28;20204;-50
2021/09/02 01:48:04;;;;;;;14.90;9.90;;;17.20;99.90;;;;;;4999793;28;20228;-50
2021/09/02 01:50:34;;;;;;;15.70;9.83;;;17.10;99.90;;;;;;4996917;28;20296;-50
2021/09/02 01:53:04;;;;;;;14.33;9.33;;;17.10;99.90;;;;;;5001577;28;20573;-50
2021/09/02 01:55:31;;;;;;;15.70;10.03;;;17.10;99.90;;;;;;5000302;28;20207;-50
2021/09/02 01:57:58;;;;;;;21.60;10.57;;;17.20;99.90;;;;;;5000558;28;20307;-50
2021/09/02 02:00:25;;;;;;;18.53;10.97;;;17.10;99.90;;;;;;5001815;28;20676;-50
2021/09/02 02:02:52;;;;;;;16.40;9.60;;;17.00;99.90;;;;;;4994679;28;20756;-50
2021/09/02 02:05:20;;;;;;;16.03;9.80;;;17.10;99.90;;;;;;5003520;28;20298;-50
2021/09/02 02:07:47;;;;;;;15.93;10.27;;;17.20;99.90;;;;;;4998392;28;20671;-50
2021/09/02 02:10:20;;;;;;;16.30;9.87;;;17.20;99.90;;;;;;5003421;28;20288;-51
2021/09/02 02:12:47;;;;;;;17.83;10.20;;;17.30;99.90;;;;;;4996718;28;20291;-51
2021/09/02 02:15:14;;;;;;;17.90;9.73;;;17.30;99.90;;;;;;5000238;28;20236;-51
2021/09/02 02:17:41;;;;;;;17.63;10.40;;;17.20;99.90;;;;;;4997831;28;20257;-51
2021/09/02 02:20:09;;;;;;;21.77;11.20;;;17.30;99.90;;;;;;4997587;28;20228;-50
2021/09/02 02:22:37;;;;;;;15.43;10.00;;;17.30;99.90;;;;;;5001908;28;20628;-51
2021/09/02 02:25:06;;;;;;;16.00;10.43;;;17.40;99.90;;;;;;5001367;28;20296;-51
2021/09/02 02:27:33;;;;;;;16.13;9.83;;;17.30;99.90;;;;;;5001136;28;20931;-51
2021/09/02 02:30:00;;;;;;;15.20;10.03;;;17.40;99.90;;;;;;4999688;28;20382;-51
2021/09/02 02:32:27;;;;;;;19.07;11.13;;;17.30;99.90;;;;;;4997128;28;20309;-51
2021/09/02 02:34:53;;;;;;;18.20;10.47;;;17.20;99.90;;;;;;5002159;28;20293;-51
2021/09/02 02:37:20;;;;;;;15.30;9.67;;;17.30;99.90;;;;;;4996861;28;20596;-51
2021/09/02 02:39:47;;;;;;;17.80;10.57;;;17.30;99.90;;;;;;5000642;28;20291;-49
2021/09/02 02:42:14;;;;;;;16.00;9.90;;;17.30;99.90;;;;;;5002115;28;20308;-49
2021/09/02 02:44:41;;;;;;;17.13;11.17;;;17.40;99.90;;;;;;4996129;28;20308;-49
2021/09/02 02:47:08;;;;;;;14.17;9.90;;;17.40;99.90;;;;;;4998587;28;20837;-49
2021/09/02 02:49:37;;;;;;;16.87;9.77;;;17.40;99.90;;;;;;4995105;28;20242;-49
2021/09/02 02:52:05;;;;;;;15.97;9.90;;;17.30;99.90;;;;;;4999701;28;20531;-49
2021/09/02 02:54:32;;;;;;;20.10;10.07;;;17.40;99.90;;;;;;4997048;28;20375;-49
2021/09/02 02:56:59;;;;;;;16.20;9.70;;;17.40;99.90;;;;;;5000504;28;20255;-50
2021/09/02 02:59:26;;;;;;;16.37;9.63;;;17.40;99.90;;;;;;5000769;28;20306;-50
2021/09/02 03:01:53;;;;;;;16.83;10.23;;;17.50;99.90;;;;;;5000851;28;20350;-50
2021/09/02 03:04:20;;;;;;;16.70;10.50;;;17.40;99.90;;;;;;4999320;28;20196;-49
2021/09/02 03:06:47;;;;;;;16.37;10.03;;;17.40;99.90;;;;;;5003009;28;20205;-50
2021/09/02 03:09:14;;;;;;;18.77;10.87;;;17.40;99.90;;;;;;4997780;28;20676;-50
2021/09/02 03:11:40;;;;;;;19.27;10.17;;;17.30;99.90;;;;;;5005215;28;20431;-49
2021/09/02 03:14:07;;;;;;;21.73;10.27;;;17.30;99.90;;;;;;5002707;28;20295;-50
2021/09/02 03:16:34;;;;;;;20.40;10.90;;;17.10;99.90;;;;;;4999531;28;20246;-50
2021/09/02 03:19:01;;;;;;;19.93;11.40;;;17.10;99.90;;;;;;5004113;28;20239;-49
2021/09/02 03:21:28;;;;;;;20.37;10.70;;;17.00;99.90;;;;;;5006161;28;20285;-50
2021/09/02 03:23:55;;;;;;;19.57;11.07;;;17.00;99.90;;;;;;5000121;28;20350;-49
2021/09/02 03:26:22;;;;;;;19.13;11.80;;;16.90;99.90;;;;;;4995542;28;20732;-49
2021/09/02 03:28:48;;;;;;;17.97;10.20;;;16.90;99.90;;;;;;4998592;28;20198;-52
2021/09/02 03:31:15;;;;;;;20.30;10.63;;;16.90;99.90;;;;;;4998763;28;20398;-52
2021/09/02 03:33:42;;;;;;;17.70;10.70;;;17.10;99.90;;;;;;5001559;28;20317;-50
2021/09/02 03:36:09;;;;;;;20.57;11.87;;;17.20;99.90;;;;;;5006877;28;20299;-50
2021/09/02 03:38:36;;;;;;;17.00;10.27;;;17.10;99.90;;;;;;5006826;28;20250;-50
2021/09/02 03:41:03;;;;;;;15.73;10.60;;;17.00;99.90;;;;;;5004992;28;20358;-50
2021/09/02 03:43:29;;;;;;;22.67;12.33;;;17.00;99.90;;;;;;5006291;28;20660;-50
2021/09/02 03:45:56;;;;;;;19.00;10.80;;;17.00;99.90;;;;;;5007122;28;20631;-49
2021/09/02 03:48:23;;;;;;;16.00;10.63;;;17.10;99.90;;;;;;5003844;28;20287;-50
2021/09/02 03:50:50;;;;;;;18.00;10.50;;;17.20;99.90;;;;;;5003764;28;20295;-50
2021/09/02 03:53:17;;;;;;;22.00;10.97;;;17.20;99.90;;;;;;5002542;28;20299;-50
2021/09/02 03:55:43;;;;;;;18.43;11.77;;;17.20;99.90;;;;;;5005513;28;20298;-50
2021/09/02 03:58:10;;;;;;;20.67;11.67;;;17.20;99.90;;;;;;5001171;28;20301;-50
2021/09/02 04:00:37;;;;;;;17.27;11.20;;;17.10;99.90;;;;;;5000662;28;20233;-50
2021/09/02 04:03:04;;;;;;;18.87;10.87;;;17.10;99.90;;;;;;5002069;28;20231;-50
2021/09/02 04:05:31;;;;;;;16.27;11.10;;;17.10;99.90;;;;;;5003463;28;20287;-50
2021/09/02 04:07:58;;;;;;;17.77;10.50;;;17.10;99.90;;;;;;5005846;28;20237;-50
2021/09/02 04:10:24;;;;;;;17.70;9.83;;;17.10;99.90;;;;;;4999839;28;20295;-50
2021/09/02 04:12:51;;;;;;;20.97;10.97;;;17.00;99.90;;;;;;5004621;28;20227;-50
2021/09/02 04:15:18;;;;;;;17.10;10.63;;;17.10;99.90;;;;;;5005021;28;20243;-50
2021/09/02 04:17:45;;;;;;;18.53;11.17;;;17.00;99.90;;;;;;5003690;28;20623;-50
2021/09/02 04:20:12;;;;;;;16.17;11.17;;;16.90;99.90;;;;;;5002069;28;20287;-50
2021/09/02 04:22:39;;;;;;;14.90;10.27;;;16.80;99.90;;;;;;5001730;28;20245;-50
2021/09/02 04:25:06;;;;;;;17.53;11.03;;;17.00;99.90;;;;;;5004755;28;20785;-50
2021/09/02 04:27:33;;;;;;;18.43;10.87;;;17.00;99.90;;;;;;4999236;28;20302;-49
2021/09/02 04:30:00;;;;;;;19.10;10.60;;;17.10;99.90;;;;;;5001384;28;20265;-50
2021/09/02 04:32:27;;;;;;;18.33;11.10;;;17.10;99.90;;;;;;4997936;28;20255;-49
2021/09/02 04:34:53;;;;;;;17.53;10.77;;;17.10;99.90;;;;;;5001653;28;20234;-50
2021/09/02 04:37:20;;;;;;;16.17;9.97;;;17.20;99.90;;;;;;5005975;28;20244;-50
2021/09/02 04:39:47;;;;;;;14.90;10.53;;;17.10;99.90;;;;;;5004631;28;20652;-50
2021/09/02 04:42:14;;;;;;;22.20;12.17;;;17.10;99.90;;;;;;4995765;28;20233;-50
2021/09/02 04:44:40;;;;;;;16.70;10.57;;;17.20;99.90;;;;;;4996127;28;20230;-50
2021/09/02 04:47:07;;;;;;;15.93;9.93;;;17.20;99.90;;;;;;4997455;28;20717;-50
2021/09/02 04:49:34;;;;;;;17.17;9.67;;;17.20;99.90;;;;;;5004138;28;20604;-50
2021/09/02 04:52:01;;;;;;;20.27;10.37;;;17.20;99.90;;;;;;5003615;28;21039;-50
2021/09/02 04:54:27;;;;;;;13.90;9.33;;;17.20;99.90;;;;;;5002074;28;20283;-51
2021/09/02 04:56:54;;;;;;;13.63;9.23;;;17.20;99.90;;;;;;5000365;28;20255;-50
2021/09/02 04:59:21;;;;;;;17.90;9.43;;;17.20;99.90;;;;;;5004969;28;20227;-50
2021/09/02 05:01:48;;;;;;;16.17;9.90;;;17.20;99.90;;;;;;5003403;28;20312;-50
2021/09/02 05:04:15;;;;;;;16.57;9.60;;;17.20;99.90;;;;;;4996171;28;20248;-50
2021/09/02 05:06:42;;;;;;;15.17;10.47;;;17.10;99.90;;;;;;4993815;28;20293;-51
2021/09/02 05:09:08;;;;;;;15.10;9.80;;;17.00;99.90;;;;;;5005429;28;20804;-51
2021/09/02 05:11:35;;;;;;;14.50;9.50;;;17.00;99.90;;;;;;4996898;28;20285;-51
2021/09/02 05:14:02;;;;;;;19.10;9.27;;;17.10;99.90;;;;;;4997807;28;20243;-51
2021/09/02 05:16:29;;;;;;;16.57;8.97;;;17.20;99.90;;;;;;5000877;28;20288;-51
2021/09/02 05:18:56;;;;;;;10.87;8.63;;;17.10;99.90;;;;;;4994570;28;20214;-51
2021/09/02 05:21:22;;;;;;;14.77;8.77;;;17.10;99.90;;;;;;5003923;28;20310;-50
2021/09/02 05:23:49;;;;;;;12.57;7.83;;;17.00;99.90;;;;;;4998158;28;20309;-50
2021/09/02 05:26:16;;;;;;;14.70;9.53;;;17.00;99.90;;;;;;5001495;28;20639;-50
2021/09/02 05:28:43;;;;;;;13.97;9.57;;;16.80;99.90;;;;;;4998711;28;20708;-50
2021/09/02 05:31:10;;;;;;;16.13;8.53;;;16.70;99.90;;;;;;4996105;28;20260;-50
2021/09/02 05:33:37;;;;;;;15.77;9.17;;;16.70;99.90;;;;;;5000667;28;20292;-51
2021/09/02 05:36:04;;;;;;;17.33;9.73;;;16.60;99.90;;;;;;4998503;28;20299;-51
2021/09/02 05:38:31;;;;;;;16.60;8.77;;;16.60;99.90;;;;;;4999137;28;20570;-50
2021/09/02 05:40:57;;;;;;;13.13;8.73;;;16.60;99.90;;;;;;5004524;28;20386;-50
2021/09/02 05:43:24;;;;;;;13.43;9.13;;;16.70;99.90;;;;;;4999405;28;20360;-50
2021/09/02 05:45:51;;;;;;;12.27;8.20;;;16.70;99.90;;;;;;5000151;28;20290;-50
2021/09/02 05:48:18;;;;;;;14.03;8.50;;;16.70;99.90;;;;;;4999464;28;20203;-50
2021/09/02 05:50:45;;;;;;;13.17;8.43;;;16.70;99.90;;;;;;4996410;28;20230;-50
2021/09/02 05:53:12;;;;;;;14.03;8.60;;;16.60;99.90;;;;;;5003179;28;20253;-50
2021/09/02 05:55:38;;;;;;;14.27;8.47;;;16.60;99.90;;;;;;4997148;28;20209;-50
2021/09/02 05:58:06;;;;;;;13.30;8.60;;;16.60;99.90;;;;;;5002861;28;20228;-50
2021/09/02 06:00:33;;;;;;;13.60;9.23;;;16.70;99.90;;;;;;4998449;28;20211;-50
2021/09/02 06:03:00;;;;;;;12.77;8.40;;;16.70;99.90;;;;;;5002913;28;20284;-50
2021/09/02 06:05:27;;;;;;;18.27;9.47;;;16.70;99.90;;;;;;5007244;28;20207;-50
2021/09/02 06:07:54;;;;;;;13.50;9.70;;;16.80;99.90;;;;;;4991497;28;20700;-49
2021/09/02 06:10:21;;;;;;;14.90;8.70;;;16.90;99.90;;;;;;4998929;28;20287;-52
2021/09/02 06:12:47;;;;;;;15.03;8.50;;;16.80;99.90;;;;;;4996778;28;20363;-50
2021/09/02 06:15:14;;;;;;;12.80;8.23;;;16.90;99.90;;;;;;4999199;28;20599;-50
2021/09/02 06:17:41;;;;;;;14.73;8.57;;;16.90;99.90;;;;;;4997098;28;20239;-50
2021/09/02 06:20:09;;;;;;;14.53;7.97;;;16.90;99.90;;;;;;4992517;28;20287;-50
2021/09/02 06:22:36;;;;;;;13.30;8.83;;;17.00;99.90;;;;;;4998970;28;20244;-50
2021/09/02 06:25:07;;;;;;;11.67;8.13;;;17.00;99.90;;;;;;5001284;28;20198;-50
2021/09/02 06:27:35;;;;;;;16.13;8.40;;;16.80;99.90;;;;;;5004548;28;20665;-50
2021/09/02 06:30:03;;;;;;;13.90;8.00;;;17.00;99.90;;;;;;5003230;28;20201;-50
2021/09/02 06:32:30;;;;;;;15.93;8.93;;;17.10;99.90;;;;;;4996758;28;20263;-50
2021/09/02 06:34:57;;;;;;;14.80;8.30;;;17.10;99.90;;;;;;4998782;28;20236;-50
2021/09/02 06:37:24;;;;;;;15.50;9.17;;;17.10;99.90;;;;;;5001745;28;20250;-50
2021/09/02 06:39:51;;;;;;;15.27;9.23;;;17.00;99.90;;;;;;5001497;28;20343;-50
2021/09/02 06:42:17;;;;;;;14.40;8.80;;;17.00;99.90;;;;;;4992926;28;20237;-50
2021/09/02 06:44:44;;;;;;;16.93;9.00;;;17.00;99.90;;;;;;4995330;28;21040;-50
2021/09/02 06:47:11;;;;;;;16.13;9.43;;;17.10;99.90;;;;;;4990592;28;20638;-50
2021/09/02 06:49:38;;;;;;;12.70;8.93;;;17.20;99.90;;;;;;4985995;28;20287;-51
2021/09/02 06:52:05;;;;;;;14.63;9.37;;;17.30;99.90;;;;;;4995623;28;20211;-51
2021/09/02 06:54:32;;;;;;;15.33;9.83;;;17.30;99.90;;;;;;4999962;28;20703;-49
2021/09/02 06:56:59;;;;;;;14.80;9.33;;;17.20;99.90;;;;;;4998101;28;20209;-49
2021/09/02 06:59:26;;;;;;;14.93;10.60;;;17.30;99.90;;;;;;4994172;28;20294;-49
2021/09/02 07:01:53;;;;;;;16.33;8.47;;;17.40;99.90;;;;;;5001432;28;20254;-49
2021/09/02 07:04:20;;;;;;;15.37;9.33;;;17.30;99.90;;;;;;4999713;28;20205;-48
2021/09/02 07:06:47;;;;;;;17.27;9.07;;;17.40;99.90;;;;;;4999442;28;20248;-49
2021/09/02 07:09:13;;;;;;;15.40;8.77;;;17.40;99.90;;;;;;4992693;28;20265;-49
2021/09/02 07:11:40;;;;;;;20.17;9.37;;;17.30;99.90;;;;;;4990467;28;20285;-49
2021/09/02 07:14:07;;;;;;;18.17;8.93;;;17.30;99.90;;;;;;4990802;28;20267;-50
2021/09/02 07:16:34;;;;;;;14.47;8.93;;;17.40;99.90;;;;;;4994541;28;20295;-49
2021/09/02 07:19:01;;;;;;;12.67;7.47;;;17.40;99.90;;;;;;4994184;28;20662;-49
2021/09/02 07:21:28;;;;;;;21.87;10.43;;;17.50;99.90;;;;;;4992490;28;21567;-49
2021/09/02 07:23:54;;;;;;;12.67;7.33;;;17.40;99.90;;;;;;4985815;28;20330;-49
2021/09/02 07:26:21;;;;;;;12.77;7.63;;;17.50;99.90;;;;;;5005465;28;20610;-49
2021/09/02 07:28:48;;;;;;;12.90;6.80;;;17.50;99.90;;;;;;4992728;28;20672;-50
2021/09/02 07:31:15;;;;;;;17.07;7.93;;;17.50;99.90;;;;;;4993655;28;20320;-49
2021/09/02 07:33:42;;;;;;;13.93;7.00;;;17.60;99.90;;;;;;4986748;28;20642;-50
2021/09/02 07:36:08;;;;;;;14.43;7.23;;;17.80;99.90;;;;;;5004625;28;20614;-50
2021/09/02 07:38:35;;;;;;;13.10;7.20;;;17.80;99.90;;;;;;4990248;28;20300;-49
2021/09/02 07:41:02;;;;;;;10.63;7.23;;;17.90;99.90;;;;;;4990069;28;20227;-49
2021/09/02 07:43:29;;;;;;;12.60;7.20;;;17.90;99.90;;;;;;4991113;28;20697;-49
2021/09/02 07:45:56;;;;;;;10.43;6.80;;;17.80;99.90;;;;;;4987568;28;20336;-49
2021/09/02 07:48:24;;;;;;;17.57;6.87;;;17.90;99.90;;;;;;4997334;28;20218;-49
2021/09/02 07:50:51;;;;;;;13.17;6.30;;;17.80;99.90;;;;;;4992853;28;20759;-49
2021/09/02 07:53:18;;;;;;;13.40;6.03;;;17.90;99.90;;;;;;4995938;28;20200;-50
2021/09/02 07:55:45;;;;;;;11.07;6.20;;;18.00;98.10;;;;;;4989785;28;20301;-49
2021/09/02 07:58:12;;;;;;;15.90;6.13;;;18.10;30.10;;;;;;4991926;28;20716;-51
2021/09/02 08:00:39;;;;;;;14.47;5.83;;;18.10;1.00;;;;;;4992927;28;20272;-50
2021/09/02 08:03:06;;;;;;;14.83;7.73;;;18.30;1.00;;;;;;4995495;28;20841;-50
2021/09/02 08:05:37;;;;;;;12.93;7.50;;;18.40;1.00;;;;;;4992903;28;20199;-50
2021/09/02 08:08:04;;;;;;;11.07;6.57;;;18.50;99.90;;;;;;4991853;28;20230;-51
2021/09/02 08:10:32;;;;;;;11.90;6.57;;;18.50;1.00;;;;;;4994561;28;20318;-50
2021/09/02 08:12:59;;;;;;;10.20;6.57;;;18.50;1.00;;;;;;4994078;28;20269;-50
2021/09/02 08:15:26;;;;;;;15.30;6.77;;;18.40;1.00;;;;;;4995332;28;20240;-50
2021/09/02 08:17:58;;;;;;;9.67;5.90;;;18.50;1.00;;;;;;4996067;28;20211;-50
2021/09/02 08:20:25;;;;;;;9.73;5.87;;;18.70;1.00;;;;;;4993491;28;20304;-51
2021/09/02 08:22:52;;;;;;;10.63;5.03;;;18.60;1.00;;;;;;4993838;28;20289;-51
2021/09/02 08:25:19;;;;;;;8.10;5.70;;;18.30;1.00;;;;;;4992834;28;20624;-51
2021/09/02 08:27:47;;;;;;;11.30;5.97;;;18.40;98.30;;;;;;4994343;28;20314;-50
2021/09/02 08:30:17;;;;;;;11.50;7.00;;;18.40;1.00;;;;;;4996819;28;20244;-50
2021/09/02 08:32:48;;;;;;;7.87;5.83;;;18.40;99.90;;;;;;4991996;28;20225;-51
2021/09/02 08:35:26;;;;;;;13.83;6.30;;;18.40;99.80;;;;;;5002431;28;20236;-50
2021/09/02 08:37:57;;;;;;;9.57;5.63;;;18.60;1.00;;;;;;4989968;28;20317;-50
2021/09/02 08:40:30;;;;;;;7.43;5.03;;;18.50;1.00;;;;;;4980038;28;20217;-50
2021/09/02 08:42:58;;;;;;;12.17;5.53;;;18.60;1.00;;;;;;4989409;28;20529;-51
2021/09/02 08:45:27;;;;;;;11.77;5.93;;;18.60;1.00;;;;;;4988352;28;20301;-51
2021/09/02 08:47:55;;;;;;;10.97;5.20;;;18.60;99.90;;;;;;4993859;28;20221;-50
2021/09/02 08:50:26;;;;;;;10.43;5.47;;;18.70;1.00;;;;;;4991180;28;20361;-50
2021/09/02 08:52:55;;;;;;;11.30;6.33;;;18.80;9.00;;;;;;4985253;28;20632;-50
2021/09/02 08:55:23;;;;;;;11.90;5.67;;;18.70;1.00;;;;;;4988361;28;20312;-50
2021/09/02 08:57:52;;;;;;;10.60;5.67;;;18.70;1.00;;;;;;4990328;28;21562;-51
2021/09/02 09:00:21;;;;;;;9.40;5.83;;;18.60;1.00;;;;;;5004222;28;20718;-50
2021/09/02 09:03:03;;;;;;;9.93;5.27;;;18.70;1.00;;;;;;4986246;28;20244;-51
2021/09/02 09:05:33;;;;;;;11.03;5.47;;;18.80;1.00;;;;;;4992250;28;20196;-50
2021/09/02 09:08:03;;;;;;;9.90;5.13;;;18.80;1.00;;;;;;4985222;28;20328;-50
2021/09/02 09:10:30;;;;;;;12.43;5.33;;;18.80;1.00;;;;;;4982568;28;20208;-51
2021/09/02 09:12:59;;;;;;;7.87;4.90;;;18.70;1.00;;;;;;4990073;28;20249;-50
2021/09/02 09:15:33;;;;;;;10.57;4.70;;;18.70;99.90;;;;;;4989047;28;20300;-50
2021/09/02 09:18:14;;;;;;;12.60;5.37;;;18.80;1.00;;;;;;4991167;28;20280;-51
2021/09/02 09:20:41;;;;;;;7.30;5.30;;;18.90;1.00;;;;;;4993089;28;20293;-50
2021/09/02 09:23:08;;;;;;;8.93;6.50;;;18.90;1.00;;;;;;4990310;28;20628;-51
2021/09/02 09:25:34;;;;;;;13.13;6.37;;;18.70;1.00;;;;;;4987872;28;20308;-51
2021/09/02 09:28:02;;;;;;;9.67;5.63;;;18.80;1.00;;;;;;4992273;28;20287;-51
2021/09/02 09:30:37;;;;;;;9.00;5.77;;;18.90;1.00;;;;;;4992034;28;20195;-50
2021/09/02 09:33:06;;;;;;;10.70;5.83;;;18.50;99.90;;;;;;4993076;28;20258;-50
2021/09/02 09:35:41;;;;;;;11.60;6.07;;;18.60;1.00;;;;;;4993838;28;20206;-51
2021/09/02 09:38:16;;;;;;;10.07;5.90;;;18.50;99.90;;;;;;4994051;28;20202;-50
2021/09/02 09:40:45;;;;;;;10.07;6.17;;;18.40;1.00;;;;;;4983059;28;20642;-51
2021/09/02 09:43:22;;;;;;;10.17;5.93;;;18.40;1.00;;;;;;4987242;28;20232;-50
2021/09/02 09:45:54;;;;;;;7.67;5.50;;;18.70;1.00;;;;;;4993984;28;20640;-50
2021/09/02 09:48:29;;;;;;;11.73;6.63;;;18.50;1.00;;;;;;4992356;28;21422;-50
2021/09/02 09:51:13;;;;;;;11.67;5.97;;;18.40;99.90;;;;;;4992512;28;20280;-50
2021/09/02 09:53:51;;;;;;;9.10;5.73;;;18.50;99.90;;;;;;4987532;28;20297;-50
2021/09/02 09:56:22;;;;;;;9.23;5.90;;;18.50;48.70;;;;;;4989517;28;20749;-50
2021/09/02 09:58:52;;;;;;;10.53;5.70;;;18.50;99.90;;;;;;4995268;28;20570;-49
2021/09/02 10:01:19;;;;;;;9.50;5.17;;;18.50;1.00;;;;;;4996058;28;20214;-50
2021/09/02 10:03:51;;;;;;;9.43;6.07;;;18.50;1.00;;;;;;4996543;28;20352;-50
2021/09/02 10:06:20;;;;;;;13.10;5.83;;;18.60;1.00;;;;;;4996349;28;20230;-50
2021/09/02 10:08:47;;;;;;;10.40;5.97;;;18.60;1.00;;;;;;4991283;28;20326;-50
2021/09/02 10:11:15;;;;;;;10.97;6.03;;;18.70;1.00;;;;;;4989320;28;20400;-50
2021/09/02 10:13:43;;;;;;;11.53;6.03;;;18.60;99.90;;;;;;4996882;28;20279;-50
2021/09/02 10:16:10;;;;;;;9.83;6.23;;;18.70;71.40;;;;;;4993260;28;20205;-49
2021/09/02 10:18:44;;;;;;;12.47;5.63;;;18.80;1.00;;;;;;4998698;28;20518;-50
2021/09/02 10:21:14;;;;;;;9.57;6.57;;;19.00;1.00;;;;;;4993931;28;20217;-56
2021/09/02 10:23:42;;;;;;;10.87;6.00;;;19.00;99.90;;;;;;4989618;28;20231;-50
2021/09/02 10:26:30;;;;;;;9.27;6.50;;;18.70;99.90;;;;;;4991724;28;20233;-50
2021/09/02 10:28:57;;;;;;;11.03;6.73;;;18.60;1.00;;;;;;4992511;28;20286;-50
2021/09/02 10:31:23;;;;;;;12.60;6.93;;;18.60;99.90;;;;;;4986244;28;20297;-50
2021/09/02 10:33:50;;;;;;;12.40;6.80;;;18.60;99.90;;;;;;4992678;28;20216;-50
2021/09/02 10:36:17;;;;;;;11.93;6.90;;;18.60;1.00;;;;;;4992344;28;20306;-50
2021/09/02 10:38:57;;;;;;;10.30;6.50;;;18.80;1.00;;;;;;4994829;28;20263;-50
2021/09/02 10:41:36;;;;;;;9.20;6.13;;;19.00;1.00;;;;;;4996351;28;20194;-51
2021/09/02 10:44:04;;;;;;;10.93;5.87;;;19.00;1.00;;;;;;4994955;28;20239;-51
2021/09/02 10:46:38;;;;;;;10.93;6.57;;;19.10;46.00;;;;;;4995170;28;20191;-51
2021/09/02 10:49:13;;;;;;;13.80;6.83;;;19.30;1.00;;;;;;4989117;28;20741;-51
2021/09/02 10:51:42;;;;;;;13.00;6.57;;;19.30;1.00;;;;;;4993945;28;20679;-52
2021/09/02 10:54:10;;;;;;;13.27;7.60;;;19.30;1.00;;;;;;4993123;28;20348;-50
2021/09/02 10:57:01;;;;;;;13.10;6.57;;;19.00;99.90;;;;;;4997277;28;20287;-50
2021/09/02 10:59:50;;;;;;;12.63;7.17;;;19.10;1.00;;;;;;4990490;28;20236;-50
2021/09/02 11:02:17;;;;;;;11.97;6.67;;;19.20;99.90;;;;;;4992733;28;20655;-50
2021/09/02 11:04:46;;;;;;;13.37;7.33;;;19.30;1.00;;;;;;4993887;28;20605;-50
2021/09/02 11:07:13;;;;;;;12.83;6.90;;;19.20;1.00;;;;;;4999267;28;20291;-50
2021/09/02 11:09:42;;;;;;;11.70;6.73;;;19.20;16.30;;;;;;4989842;28;20205;-50
2021/09/02 11:12:11;;;;;;;13.20;7.33;;;19.60;1.00;;;;;;4993964;28;20307;-50
2021/09/02 11:14:40;;;;;;;11.00;5.67;;;19.70;1.00;;;;;;4994183;28;20197;-50
2021/09/02 11:17:08;;;;;;;11.87;6.37;;;19.80;1.00;;;;;;4993295;28;20942;-50
2021/09/02 11:19:37;;;;;;;12.93;6.90;;;19.80;1.00;;;;;;4990402;28;20717;-50
2021/09/02 11:22:10;;;;;;;13.00;7.23;;;19.80;1.00;;;;;;4993513;28;20291;-50
2021/09/02 11:24:39;;;;;;;13.17;6.40;;;19.70;37.90;;;;;;4991432;28;20343;-50
2021/09/02 11:27:06;;;;;;;10.53;7.43;;;19.70;1.00;;;;;;4990993;28;20292;-50
2021/09/02 11:29:33;;;;;;;11.83;7.13;;;20.00;1.00;;;;;;4996669;28;20307;-50
2021/09/02 11:32:06;;;;;;;13.20;7.47;;;19.90;66.70;;;;;;4996460;28;20328;-50
2021/09/02 11:34:33;;;;;;;10.90;7.50;;;19.70;1.00;;;;;;4992710;28;20289;-50
2021/09/02 11:37:01;;;;;;;15.20;7.90;;;19.80;1.00;;;;;;4994792;28;20627;-50
2021/09/02 11:39:33;;;;;;;10.17;6.57;;;19.80;1.00;;;;;;4988159;28;20201;-50
2021/09/02 11:42:09;;;;;;;10.40;6.67;;;20.10;1.00;;;;;;4993806;28;20205;-50
2021/09/02 11:44:38;;;;;;;14.43;7.07;;;20.10;1.00;;;;;;4990385;28;20311;-50
2021/09/02 11:47:05;;;;;;;9.57;6.30;;;20.10;1.00;;;;;;4986929;28;20336;-50
2021/09/02 11:49:33;;;;;;;11.00;6.63;;;20.20;82.70;;;;;;5006158;28;20189;-50
2021/09/02 11:52:01;;;;;;;10.27;7.10;;;20.30;1.00;;;;;;4989144;28;20211;-51
2021/09/02 11:54:30;;;;;;;10.00;6.83;;;20.50;99.90;;;;;;4987049;28;20345;-51
2021/09/02 11:56:57;;;;;;;12.53;7.17;;;20.60;99.90;;;;;;5009214;28;20201;-50
2021/09/02 11:59:24;;;;;;;8.93;5.90;;;20.50;93.70;;;;;;5001233;28;20194;-51
2021/09/02 12:01:54;;;;;;;12.87;6.40;;;20.90;99.90;;;;;;4994228;28;20275;-50
2021/09/02 12:04:25;;;;;;;9.07;6.23;;;20.80;1.00;;;;;;4992574;28;20625;-51
2021/09/02 12:06:55;;;;;;;12.10;6.27;;;21.30;1.00;;;;;;4992500;28;20297;-50
2021/09/02 12:09:24;;;;;;;8.03;5.13;;;21.50;1.00;;;;;;4992908;28;20796;-50
2021/09/02 12:11:51;;;;;;;10.33;5.90;;;21.20;29.30;;;;;;4992393;28;20261;-50
2021/09/02 12:14:21;;;;;;;11.57;6.80;;;21.30;99.90;;;;;;4992523;28;20293;-50
2021/09/02 12:17:11;;;;;;;10.83;5.77;;;21.50;99.90;;;;;;4984398;28;20248;-50
2021/09/02 12:20:00;;;;;;;10.17;5.57;;;22.30;1.00;;;;;;4985064;28;20257;-50
2021/09/02 12:22:35;;;;;;;9.93;6.07;;;22.30;1.00;;;;;;4989196;28;20232;-50
2021/09/02 12:25:14;;;;;;;9.97;5.87;;;21.80;1.00;;;;;;4990199;28;20601;-50
2021/09/02 12:27:50;;;;;;;12.30;6.70;;;22.00;1.00;;;;;;4988697;28;20292;-50
2021/09/02 12:30:38;;;;;;;11.37;5.50;;;22.30;1.00;;;;;;4992860;28;20201;-50
2021/09/02 12:33:18;;;;;;;13.30;5.97;;;22.70;1.00;;;;;;4986805;28;20617;-51
2021/09/02 12:35:46;;;;;;;10.17;5.60;;;23.00;1.00;;;;;;4982565;28;20287;-51
2021/09/02 12:38:33;;;;;;;12.27;5.93;;;22.90;99.90;;;;;;4992305;28;20256;-51
2021/09/02 12:41:22;;;;;;;8.57;5.63;;;22.90;99.90;;;;;;4987875;28;20231;-51
2021/09/02 12:44:13;;;;;;;9.73;6.83;;;23.30;99.90;;;;;;4989761;28;20213;-51
2021/09/02 12:47:19;;;;;;;10.47;5.53;;;22.90;1.00;;;;;;4988848;28;20324;-51